sensor_id;sensor_type;location;lat;lon;timestamp;P1;durP1;ratioP1;P2;durP2;ratioP2
74471;SDS011;62920;53.572;10.050;2023-02-22T00:00:27;20.50;;;9.52;;
74471;SDS011;62920;53.572;10.050;2023-02-22T00:03:04;20.83;;;8.90;;
74471;SDS011;62920;53.572;10.050;2023-02-22T00:05:31;17.02;;;8.18;;
74471;SDS011;62920;53.572;10.050;2023-02-22T00:07:57;20.02;;;9.65;;
74471;SDS011;62920;53.572;10.050;2023-02-22T00:10:25;20.02;;;9.88;;
74471;SDS011;62920;53.572;10.050;2023-02-22T00:12:51;21.77;;;10.30;;
74471;SDS011;62920;53.572;10.050;2023-02-22T00:15:22;23.20;;;8.98;;
74471;SDS011;62920;53.572;10.050;2023-02-22T00:17:51;23.67;;;9.82;;
74471;SDS011;62920;53.572;10.050;2023-02-22T00:20:17;26.98;;;9.85;;
74471;SDS011;62920;53.572;10.050;2023-02-22T00:22:43;21.52;;;9.63;;
74471;SDS011;62920;53.572;10.050;2023-02-22T00:25:13;21.63;;;9.00;;
74471;SDS011;62920;53.572;10.050;2023-02-22T00:27:41;22.63;;;9.32;;
74471;SDS011;62920;53.572;10.050;2023-02-22T00:30:07;21.83;;;9.73;;
74471;SDS011;62920;53.572;10.050;2023-02-22T00:32:33;21.52;;;8.35;;
74471;SDS011;62920;53.572;10.050;2023-02-22T00:34:59;25.10;;;9.18;;
74471;SDS011;62920;53.572;10.050;2023-02-22T00:37:24;25.58;;;9.63;;
74471;SDS011;62920;53.572;10.050;2023-02-22T00:39:50;22.98;;;9.30;;
74471;SDS011;62920;53.572;10.050;2023-02-22T00:42:16;27.50;;;10.45;;
74471;SDS011;62920;53.572;10.050;2023-02-22T00:44:42;29.58;;;9.73;;
74471;SDS011;62920;53.572;10.050;2023-02-22T00:47:08;22.65;;;9.15;;
74471;SDS011;62920;53.572;10.050;2023-02-22T00:49:34;28.63;;;8.75;;
74471;SDS011;62920;53.572;10.050;2023-02-22T00:51:59;24.90;;;8.82;;
74471;SDS011;62920;53.572;10.050;2023-02-22T00:54:25;28.10;;;8.27;;
74471;SDS011;62920;53.572;10.050;2023-02-22T00:56:51;28.98;;;8.65;;
74471;SDS011;62920;53.572;10.050;2023-02-22T00:59:16;23.65;;;8.55;;
74471;SDS011;62920;53.572;10.050;2023-02-22T01:01:41;26.45;;;8.90;;
74471;SDS011;62920;53.572;10.050;2023-02-22T01:04:07;28.20;;;9.52;;
74471;SDS011;62920;53.572;10.050;2023-02-22T01:06:33;32.88;;;9.68;;
74471;SDS011;62920;53.572;10.050;2023-02-22T01:08:58;31.13;;;9.52;;
74471;SDS011;62920;53.572;10.050;2023-02-22T01:11:24;26.70;;;9.07;;
74471;SDS011;62920;53.572;10.050;2023-02-22T01:13:49;29.58;;;8.90;;
74471;SDS011;62920;53.572;10.050;2023-02-22T01:16:18;22.08;;;9.38;;
74471;SDS011;62920;53.572;10.050;2023-02-22T01:18:43;21.83;;;8.50;;
74471;SDS011;62920;53.572;10.050;2023-02-22T01:21:09;25.98;;;8.40;;
74471;SDS011;62920;53.572;10.050;2023-02-22T01:23:34;29.17;;;9.60;;
74471;SDS011;62920;53.572;10.050;2023-02-22T01:26:00;22.02;;;8.20;;
74471;SDS011;62920;53.572;10.050;2023-02-22T01:28:25;29.13;;;9.73;;
74471;SDS011;62920;53.572;10.050;2023-02-22T01:30:50;25.30;;;10.02;;
74471;SDS011;62920;53.572;10.050;2023-02-22T01:33:16;29.67;;;9.02;;
74471;SDS011;62920;53.572;10.050;2023-02-22T01:35:42;27.85;;;9.80;;
74471;SDS011;62920;53.572;10.050;2023-02-22T01:38:08;28.48;;;8.80;;
74471;SDS011;62920;53.572;10.050;2023-02-22T01:40:38;29.77;;;9.65;;
74471;SDS011;62920;53.572;10.050;2023-02-22T01:43:25;30.05;;;10.00;;
74471;SDS011;62920;53.572;10.050;2023-02-22T01:46:00;31.77;;;9.88;;
74471;SDS011;62920;53.572;10.050;2023-02-22T01:48:42;28.30;;;10.18;;
74471;SDS011;62920;53.572;10.050;2023-02-22T01:51:14;29.98;;;9.40;;
74471;SDS011;62920;53.572;10.050;2023-02-22T01:53:49;36.78;;;10.45;;
74471;SDS011;62920;53.572;10.050;2023-02-22T01:56:16;29.55;;;10.18;;
74471;SDS011;62920;53.572;10.050;2023-02-22T01:58:43;28.55;;;10.00;;
74471;SDS011;62920;53.572;10.050;2023-02-22T02:01:11;27.13;;;10.35;;
74471;SDS011;62920;53.572;10.050;2023-02-22T02:03:37;31.60;;;9.88;;
74471;SDS011;62920;53.572;10.050;2023-02-22T02:06:04;28.90;;;10.85;;
74471;SDS011;62920;53.572;10.050;2023-02-22T02:08:37;40.28;;;9.20;;
74471;SDS011;62920;53.572;10.050;2023-02-22T02:11:24;26.02;;;8.65;;
74471;SDS011;62920;53.572;10.050;2023-02-22T02:13:50;25.90;;;8.77;;
74471;SDS011;62920;53.572;10.050;2023-02-22T02:16:19;25.42;;;8.43;;
74471;SDS011;62920;53.572;10.050;2023-02-22T02:18:46;26.33;;;8.38;;
74471;SDS011;62920;53.572;10.050;2023-02-22T02:21:36;32.08;;;10.32;;
74471;SDS011;62920;53.572;10.050;2023-02-22T02:26:37;21.20;;;7.63;;
74471;SDS011;62920;53.572;10.050;2023-02-22T02:41:09;20.95;;;7.85;;
74471;SDS011;62920;53.572;10.050;2023-02-22T02:46:40;25.25;;;8.50;;
74471;SDS011;62920;53.572;10.050;2023-02-22T02:49:12;20.05;;;8.45;;
74471;SDS011;62920;53.572;10.050;2023-02-22T02:51:42;16.98;;;6.60;;
74471;SDS011;62920;53.572;10.050;2023-02-22T02:54:10;20.38;;;7.68;;
74471;SDS011;62920;53.572;10.050;2023-02-22T02:56:36;20.45;;;8.23;;
74471;SDS011;62920;53.572;10.050;2023-02-22T02:59:02;21.08;;;8.80;;
74471;SDS011;62920;53.572;10.050;2023-02-22T03:04:17;20.92;;;7.93;;
74471;SDS011;62920;53.572;10.050;2023-02-22T03:17:27;19.55;;;9.25;;
74471;SDS011;62920;53.572;10.050;2023-02-22T03:20:03;22.13;;;8.65;;
74471;SDS011;62920;53.572;10.050;2023-02-22T03:22:39;19.00;;;7.18;;
74471;SDS011;62920;53.572;10.050;2023-02-22T03:25:23;15.57;;;7.25;;
74471;SDS011;62920;53.572;10.050;2023-02-22T03:27:56;18.90;;;7.75;;
74471;SDS011;62920;53.572;10.050;2023-02-22T03:30:31;16.33;;;7.53;;
74471;SDS011;62920;53.572;10.050;2023-02-22T03:33:08;24.35;;;9.10;;
74471;SDS011;62920;53.572;10.050;2023-02-22T03:35:46;20.33;;;9.02;;
74471;SDS011;62920;53.572;10.050;2023-02-22T03:38:18;20.85;;;7.97;;
74471;SDS011;62920;53.572;10.050;2023-02-22T03:40:45;19.05;;;7.28;;
74471;SDS011;62920;53.572;10.050;2023-02-22T03:43:14;17.20;;;7.93;;
74471;SDS011;62920;53.572;10.050;2023-02-22T03:45:43;27.83;;;8.93;;
74471;SDS011;62920;53.572;10.050;2023-02-22T03:48:58;19.63;;;7.50;;
74471;SDS011;62920;53.572;10.050;2023-02-22T03:51:04;20.15;;;7.93;;
74471;SDS011;62920;53.572;10.050;2023-02-22T03:53:31;16.42;;;6.53;;
74471;SDS011;62920;53.572;10.050;2023-02-22T03:55:58;22.35;;;8.35;;
74471;SDS011;62920;53.572;10.050;2023-02-22T03:58:24;22.13;;;8.38;;
74471;SDS011;62920;53.572;10.050;2023-02-22T04:00:51;18.73;;;7.78;;
74471;SDS011;62920;53.572;10.050;2023-02-22T04:03:20;20.85;;;8.80;;
74471;SDS011;62920;53.572;10.050;2023-02-22T04:05:46;19.23;;;8.00;;
74471;SDS011;62920;53.572;10.050;2023-02-22T04:08:11;19.13;;;7.57;;
74471;SDS011;62920;53.572;10.050;2023-02-22T04:10:36;18.42;;;8.23;;
74471;SDS011;62920;53.572;10.050;2023-02-22T04:13:02;17.92;;;8.40;;
74471;SDS011;62920;53.572;10.050;2023-02-22T04:15:29;20.58;;;7.57;;
74471;SDS011;62920;53.572;10.050;2023-02-22T04:17:54;18.92;;;7.85;;
74471;SDS011;62920;53.572;10.050;2023-02-22T04:20:20;19.27;;;7.82;;
74471;SDS011;62920;53.572;10.050;2023-02-22T04:22:49;21.50;;;8.38;;
74471;SDS011;62920;53.572;10.050;2023-02-22T04:25:16;16.85;;;7.18;;
74471;SDS011;62920;53.572;10.050;2023-02-22T04:27:42;20.63;;;8.05;;
74471;SDS011;62920;53.572;10.050;2023-02-22T04:30:08;15.88;;;6.90;;
74471;SDS011;62920;53.572;10.050;2023-02-22T04:32:34;18.20;;;7.05;;
74471;SDS011;62920;53.572;10.050;2023-02-22T04:34:59;18.85;;;8.20;;
74471;SDS011;62920;53.572;10.050;2023-02-22T04:37:25;17.55;;;7.47;;
74471;SDS011;62920;53.572;10.050;2023-02-22T04:39:50;18.02;;;7.50;;
74471;SDS011;62920;53.572;10.050;2023-02-22T04:42:15;19.83;;;8.65;;
74471;SDS011;62920;53.572;10.050;2023-02-22T04:44:41;23.30;;;8.23;;
74471;SDS011;62920;53.572;10.050;2023-02-22T04:47:06;18.77;;;8.32;;
74471;SDS011;62920;53.572;10.050;2023-02-22T04:49:31;20.23;;;8.18;;
74471;SDS011;62920;53.572;10.050;2023-02-22T04:51:57;21.58;;;8.77;;
74471;SDS011;62920;53.572;10.050;2023-02-22T04:54:22;22.13;;;7.78;;
74471;SDS011;62920;53.572;10.050;2023-02-22T04:56:47;20.15;;;9.25;;
74471;SDS011;62920;53.572;10.050;2023-02-22T04:59:13;17.20;;;8.05;;
74471;SDS011;62920;53.572;10.050;2023-02-22T05:01:38;20.00;;;8.60;;
74471;SDS011;62920;53.572;10.050;2023-02-22T05:04:05;21.88;;;9.10;;
74471;SDS011;62920;53.572;10.050;2023-02-22T05:06:31;18.45;;;8.48;;
74471;SDS011;62920;53.572;10.050;2023-02-22T05:08:56;21.67;;;8.43;;
74471;SDS011;62920;53.572;10.050;2023-02-22T05:11:22;24.20;;;9.88;;
74471;SDS011;62920;53.572;10.050;2023-02-22T05:13:48;28.20;;;10.35;;
74471;SDS011;62920;53.572;10.050;2023-02-22T05:16:13;24.80;;;10.30;;
74471;SDS011;62920;53.572;10.050;2023-02-22T05:18:39;28.60;;;9.43;;
74471;SDS011;62920;53.572;10.050;2023-02-22T05:21:05;22.48;;;8.48;;
74471;SDS011;62920;53.572;10.050;2023-02-22T05:23:31;26.90;;;10.25;;
74471;SDS011;62920;53.572;10.050;2023-02-22T05:25:57;23.92;;;8.68;;
74471;SDS011;62920;53.572;10.050;2023-02-22T05:28:22;25.98;;;8.77;;
74471;SDS011;62920;53.572;10.050;2023-02-22T05:30:48;26.35;;;9.25;;
74471;SDS011;62920;53.572;10.050;2023-02-22T05:33:13;29.48;;;10.05;;
74471;SDS011;62920;53.572;10.050;2023-02-22T05:35:39;23.33;;;9.40;;
74471;SDS011;62920;53.572;10.050;2023-02-22T05:38:04;30.13;;;9.55;;
74471;SDS011;62920;53.572;10.050;2023-02-22T05:40:30;23.83;;;9.05;;
74471;SDS011;62920;53.572;10.050;2023-02-22T05:42:56;27.35;;;10.05;;
74471;SDS011;62920;53.572;10.050;2023-02-22T05:45:22;25.90;;;8.98;;
74471;SDS011;62920;53.572;10.050;2023-02-22T05:47:50;29.13;;;9.55;;
74471;SDS011;62920;53.572;10.050;2023-02-22T05:50:16;30.90;;;8.88;;
74471;SDS011;62920;53.572;10.050;2023-02-22T05:52:41;27.08;;;8.77;;
74471;SDS011;62920;53.572;10.050;2023-02-22T05:55:07;34.47;;;10.57;;
74471;SDS011;62920;53.572;10.050;2023-02-22T05:57:34;32.13;;;9.88;;
74471;SDS011;62920;53.572;10.050;2023-02-22T05:59:59;28.30;;;9.82;;
74471;SDS011;62920;53.572;10.050;2023-02-22T06:02:26;31.25;;;10.05;;
74471;SDS011;62920;53.572;10.050;2023-02-22T06:04:51;29.58;;;10.65;;
74471;SDS011;62920;53.572;10.050;2023-02-22T06:07:16;29.52;;;9.18;;
74471;SDS011;62920;53.572;10.050;2023-02-22T06:09:42;26.70;;;10.23;;
74471;SDS011;62920;53.572;10.050;2023-02-22T06:12:07;25.92;;;9.10;;
74471;SDS011;62920;53.572;10.050;2023-02-22T06:14:33;26.65;;;9.48;;
74471;SDS011;62920;53.572;10.050;2023-02-22T06:16:59;27.50;;;9.57;;
74471;SDS011;62920;53.572;10.050;2023-02-22T06:19:24;27.25;;;10.18;;
74471;SDS011;62920;53.572;10.050;2023-02-22T06:21:51;30.83;;;10.18;;
74471;SDS011;62920;53.572;10.050;2023-02-22T06:24:17;23.88;;;9.18;;
74471;SDS011;62920;53.572;10.050;2023-02-22T06:26:43;28.88;;;9.45;;
74471;SDS011;62920;53.572;10.050;2023-02-22T06:29:08;30.55;;;9.73;;
74471;SDS011;62920;53.572;10.050;2023-02-22T06:31:34;27.58;;;9.57;;
74471;SDS011;62920;53.572;10.050;2023-02-22T06:34:00;26.10;;;9.50;;
74471;SDS011;62920;53.572;10.050;2023-02-22T06:36:25;31.27;;;10.20;;
74471;SDS011;62920;53.572;10.050;2023-02-22T06:38:51;27.23;;;9.35;;
74471;SDS011;62920;53.572;10.050;2023-02-22T06:41:16;27.35;;;9.85;;
74471;SDS011;62920;53.572;10.050;2023-02-22T06:43:41;31.80;;;10.60;;
74471;SDS011;62920;53.572;10.050;2023-02-22T06:46:10;32.97;;;10.27;;
74471;SDS011;62920;53.572;10.050;2023-02-22T06:48:36;30.55;;;10.25;;
74471;SDS011;62920;53.572;10.050;2023-02-22T06:51:03;29.90;;;9.90;;
74471;SDS011;62920;53.572;10.050;2023-02-22T06:53:28;32.65;;;10.77;;
74471;SDS011;62920;53.572;10.050;2023-02-22T06:55:54;35.10;;;11.38;;
74471;SDS011;62920;53.572;10.050;2023-02-22T06:58:19;31.05;;;10.80;;
74471;SDS011;62920;53.572;10.050;2023-02-22T07:00:45;33.15;;;9.75;;
74471;SDS011;62920;53.572;10.050;2023-02-22T07:03:10;36.67;;;11.43;;
74471;SDS011;62920;53.572;10.050;2023-02-22T07:05:35;34.10;;;11.10;;
74471;SDS011;62920;53.572;10.050;2023-02-22T07:08:04;37.80;;;11.45;;
74471;SDS011;62920;53.572;10.050;2023-02-22T07:10:31;39.92;;;11.35;;
74471;SDS011;62920;53.572;10.050;2023-02-22T07:12:57;35.83;;;11.85;;
74471;SDS011;62920;53.572;10.050;2023-02-22T07:15:23;38.00;;;13.55;;
74471;SDS011;62920;53.572;10.050;2023-02-22T07:17:50;29.85;;;10.13;;
74471;SDS011;62920;53.572;10.050;2023-02-22T07:20:16;31.08;;;10.82;;
74471;SDS011;62920;53.572;10.050;2023-02-22T07:22:44;31.90;;;11.43;;
74471;SDS011;62920;53.572;10.050;2023-02-22T07:25:10;33.40;;;9.85;;
74471;SDS011;62920;53.572;10.050;2023-02-22T07:27:36;29.35;;;9.73;;
74471;SDS011;62920;53.572;10.050;2023-02-22T07:30:03;29.40;;;10.13;;
74471;SDS011;62920;53.572;10.050;2023-02-22T07:32:32;31.30;;;10.75;;
74471;SDS011;62920;53.572;10.050;2023-02-22T07:34:58;27.90;;;8.98;;
74471;SDS011;62920;53.572;10.050;2023-02-22T07:37:23;29.65;;;11.38;;
74471;SDS011;62920;53.572;10.050;2023-02-22T07:39:49;26.80;;;9.38;;
74471;SDS011;62920;53.572;10.050;2023-02-22T07:42:14;26.13;;;9.43;;
74471;SDS011;62920;53.572;10.050;2023-02-22T07:44:40;26.55;;;10.25;;
74471;SDS011;62920;53.572;10.050;2023-02-22T07:47:05;30.55;;;11.48;;
74471;SDS011;62920;53.572;10.050;2023-02-22T07:49:30;29.60;;;11.20;;
74471;SDS011;62920;53.572;10.050;2023-02-22T07:51:56;28.38;;;9.80;;
74471;SDS011;62920;53.572;10.050;2023-02-22T07:54:21;28.48;;;10.05;;
74471;SDS011;62920;53.572;10.050;2023-02-22T07:56:47;26.63;;;9.40;;
74471;SDS011;62920;53.572;10.050;2023-02-22T07:59:13;27.60;;;10.45;;
74471;SDS011;62920;53.572;10.050;2023-02-22T08:01:39;25.75;;;9.90;;
74471;SDS011;62920;53.572;10.050;2023-02-22T08:04:04;24.73;;;8.95;;
74471;SDS011;62920;53.572;10.050;2023-02-22T08:06:30;24.83;;;10.25;;
74471;SDS011;62920;53.572;10.050;2023-02-22T08:08:56;23.00;;;9.27;;
74471;SDS011;62920;53.572;10.050;2023-02-22T08:11:21;26.10;;;9.85;;
74471;SDS011;62920;53.572;10.050;2023-02-22T08:13:48;24.10;;;9.38;;
74471;SDS011;62920;53.572;10.050;2023-02-22T08:16:13;24.40;;;9.23;;
74471;SDS011;62920;53.572;10.050;2023-02-22T08:18:38;25.33;;;9.50;;
74471;SDS011;62920;53.572;10.050;2023-02-22T08:21:05;21.42;;;8.77;;
74471;SDS011;62920;53.572;10.050;2023-02-22T08:23:30;22.83;;;9.10;;
74471;SDS011;62920;53.572;10.050;2023-02-22T08:25:56;20.73;;;8.27;;
74471;SDS011;62920;53.572;10.050;2023-02-22T08:28:32;26.67;;;9.45;;
74471;SDS011;62920;53.572;10.050;2023-02-22T08:30:57;24.17;;;9.52;;
74471;SDS011;62920;53.572;10.050;2023-02-22T08:33:23;22.55;;;8.70;;
74471;SDS011;62920;53.572;10.050;2023-02-22T08:35:48;23.65;;;8.52;;
74471;SDS011;62920;53.572;10.050;2023-02-22T08:38:19;22.17;;;8.75;;
74471;SDS011;62920;53.572;10.050;2023-02-22T08:40:49;18.25;;;7.10;;
74471;SDS011;62920;53.572;10.050;2023-02-22T08:43:15;24.10;;;9.40;;
74471;SDS011;62920;53.572;10.050;2023-02-22T08:45:41;20.40;;;8.15;;
74471;SDS011;62920;53.572;10.050;2023-02-22T08:48:07;20.23;;;8.43;;
74471;SDS011;62920;53.572;10.050;2023-02-22T08:50:32;22.55;;;9.27;;
74471;SDS011;62920;53.572;10.050;2023-02-22T08:52:59;21.38;;;9.20;;
74471;SDS011;62920;53.572;10.050;2023-02-22T08:55:27;19.73;;;8.65;;
74471;SDS011;62920;53.572;10.050;2023-02-22T08:57:56;17.65;;;7.35;;
74471;SDS011;62920;53.572;10.050;2023-02-22T09:00:22;20.95;;;8.88;;
74471;SDS011;62920;53.572;10.050;2023-02-22T09:02:49;26.20;;;10.50;;
74471;SDS011;62920;53.572;10.050;2023-02-22T09:05:15;21.63;;;9.65;;
74471;SDS011;62920;53.572;10.050;2023-02-22T09:07:41;22.55;;;8.48;;
74471;SDS011;62920;53.572;10.050;2023-02-22T09:10:07;22.25;;;8.75;;
74471;SDS011;62920;53.572;10.050;2023-02-22T09:12:34;22.27;;;9.20;;
74471;SDS011;62920;53.572;10.050;2023-02-22T09:15:00;23.67;;;9.48;;
74471;SDS011;62920;53.572;10.050;2023-02-22T09:17:25;22.00;;;8.80;;
74471;SDS011;62920;53.572;10.050;2023-02-22T09:19:51;25.90;;;9.77;;
74471;SDS011;62920;53.572;10.050;2023-02-22T09:22:16;24.10;;;8.88;;
74471;SDS011;62920;53.572;10.050;2023-02-22T09:24:42;27.63;;;9.82;;
74471;SDS011;62920;53.572;10.050;2023-02-22T09:27:08;20.92;;;8.45;;
74471;SDS011;62920;53.572;10.050;2023-02-22T09:29:36;22.85;;;9.45;;
74471;SDS011;62920;53.572;10.050;2023-02-22T09:32:01;20.77;;;7.63;;
74471;SDS011;62920;53.572;10.050;2023-02-22T09:34:28;25.80;;;9.45;;
74471;SDS011;62920;53.572;10.050;2023-02-22T09:36:54;27.27;;;10.77;;
74471;SDS011;62920;53.572;10.050;2023-02-22T09:39:21;22.67;;;8.45;;
74471;SDS011;62920;53.572;10.050;2023-02-22T09:42:07;24.33;;;9.13;;
74471;SDS011;62920;53.572;10.050;2023-02-22T09:47:18;26.63;;;9.63;;
74471;SDS011;62920;53.572;10.050;2023-02-22T09:49:56;27.17;;;10.20;;
74471;SDS011;62920;53.572;10.050;2023-02-22T09:52:35;22.42;;;9.13;;
74471;SDS011;62920;53.572;10.050;2023-02-22T09:57:49;21.98;;;8.13;;
74471;SDS011;62920;53.572;10.050;2023-02-22T10:00:20;23.27;;;9.35;;
74471;SDS011;62920;53.572;10.050;2023-02-22T10:05:41;22.73;;;9.60;;
74471;SDS011;62920;53.572;10.050;2023-02-22T10:08:09;22.42;;;9.02;;
74471;SDS011;62920;53.572;10.050;2023-02-22T10:10:43;25.98;;;9.60;;
74471;SDS011;62920;53.572;10.050;2023-02-22T10:28:24;20.08;;;8.32;;
74471;SDS011;62920;53.572;10.050;2023-02-22T10:30:52;21.20;;;7.80;;
74471;SDS011;62920;53.572;10.050;2023-02-22T10:33:26;21.67;;;8.75;;
74471;SDS011;62920;53.572;10.050;2023-02-22T10:35:55;21.30;;;8.13;;
74471;SDS011;62920;53.572;10.050;2023-02-22T10:43:37;20.23;;;8.25;;
74471;SDS011;62920;53.572;10.050;2023-02-22T10:46:06;19.98;;;7.50;;
74471;SDS011;62920;53.572;10.050;2023-02-22T10:48:34;23.63;;;9.52;;
74471;SDS011;62920;53.572;10.050;2023-02-22T10:51:02;22.25;;;9.27;;
74471;SDS011;62920;53.572;10.050;2023-02-22T10:53:29;21.50;;;8.88;;
74471;SDS011;62920;53.572;10.050;2023-02-22T10:58:38;22.90;;;10.00;;
74471;SDS011;62920;53.572;10.050;2023-02-22T11:01:24;22.27;;;9.38;;
74471;SDS011;62920;53.572;10.050;2023-02-22T11:03:58;22.25;;;9.98;;
74471;SDS011;62920;53.572;10.050;2023-02-22T11:06:41;25.33;;;9.82;;
74471;SDS011;62920;53.572;10.050;2023-02-22T11:09:09;21.75;;;9.85;;
74471;SDS011;62920;53.572;10.050;2023-02-22T11:11:48;18.88;;;8.88;;
74471;SDS011;62920;53.572;10.050;2023-02-22T11:14:24;20.50;;;10.32;;
74471;SDS011;62920;53.572;10.050;2023-02-22T11:16:51;23.30;;;9.70;;
74471;SDS011;62920;53.572;10.050;2023-02-22T11:21:44;20.00;;;9.18;;
74471;SDS011;62920;53.572;10.050;2023-02-22T11:26:41;18.20;;;8.50;;
74471;SDS011;62920;53.572;10.050;2023-02-22T11:29:30;23.92;;;9.95;;
74471;SDS011;62920;53.572;10.050;2023-02-22T11:32:11;20.60;;;9.75;;
74471;SDS011;62920;53.572;10.050;2023-02-22T11:34:39;21.60;;;9.43;;
74471;SDS011;62920;53.572;10.050;2023-02-22T11:39:41;14.95;;;7.28;;
74471;SDS011;62920;53.572;10.050;2023-02-22T11:42:20;17.90;;;8.48;;
74471;SDS011;62920;53.572;10.050;2023-02-22T11:45:06;17.38;;;8.15;;
74471;SDS011;62920;53.572;10.050;2023-02-22T11:47:56;19.15;;;8.85;;
74471;SDS011;62920;53.572;10.050;2023-02-22T11:50:32;16.73;;;8.55;;
74471;SDS011;62920;53.572;10.050;2023-02-22T11:53:12;17.25;;;7.55;;
74471;SDS011;62920;53.572;10.050;2023-02-22T11:56:17;21.02;;;8.70;;
74471;SDS011;62920;53.572;10.050;2023-02-22T11:58:53;17.38;;;8.30;;
74471;SDS011;62920;53.572;10.050;2023-02-22T12:01:42;14.05;;;6.70;;
74471;SDS011;62920;53.572;10.050;2023-02-22T12:12:43;17.15;;;8.30;;
74471;SDS011;62920;53.572;10.050;2023-02-22T12:18:02;16.63;;;9.00;;
74471;SDS011;62920;53.572;10.050;2023-02-22T12:20:56;16.83;;;7.45;;
74471;SDS011;62920;53.572;10.050;2023-02-22T12:23:25;22.55;;;9.57;;
74471;SDS011;62920;53.572;10.050;2023-02-22T12:25:57;17.45;;;8.43;;
74471;SDS011;62920;53.572;10.050;2023-02-22T12:28:29;17.65;;;8.63;;
74471;SDS011;62920;53.572;10.050;2023-02-22T12:30:58;19.40;;;9.13;;
74471;SDS011;62920;53.572;10.050;2023-02-22T12:34:23;16.15;;;6.97;;
74471;SDS011;62920;53.572;10.050;2023-02-22T12:36:56;21.60;;;9.52;;
74471;SDS011;62920;53.572;10.050;2023-02-22T12:41:57;18.45;;;8.88;;
74471;SDS011;62920;53.572;10.050;2023-02-22T12:44:28;17.83;;;8.32;;
74471;SDS011;62920;53.572;10.050;2023-02-22T12:46:57;18.52;;;9.02;;
74471;SDS011;62920;53.572;10.050;2023-02-22T12:55:10;21.60;;;9.77;;
74471;SDS011;62920;53.572;10.050;2023-02-22T13:00:47;17.95;;;8.20;;
74471;SDS011;62920;53.572;10.050;2023-02-22T13:11:48;21.55;;;9.18;;
74471;SDS011;62920;53.572;10.050;2023-02-22T13:20:09;19.27;;;8.93;;
74471;SDS011;62920;53.572;10.050;2023-02-22T13:33:32;15.25;;;8.02;;
74471;SDS011;62920;53.572;10.050;2023-02-22T13:47:28;16.50;;;7.60;;
74471;SDS011;62920;53.572;10.050;2023-02-22T13:50:18;13.75;;;6.95;;
74471;SDS011;62920;53.572;10.050;2023-02-22T13:52:45;16.60;;;7.50;;
74471;SDS011;62920;53.572;10.050;2023-02-22T13:55:20;14.70;;;7.13;;
74471;SDS011;62920;53.572;10.050;2023-02-22T13:57:47;15.25;;;7.53;;
74471;SDS011;62920;53.572;10.050;2023-02-22T14:10:45;15.73;;;7.78;;
74471;SDS011;62920;53.572;10.050;2023-02-22T14:13:13;16.92;;;6.15;;
74471;SDS011;62920;53.572;10.050;2023-02-22T14:18:24;14.48;;;7.45;;
74471;SDS011;62920;53.572;10.050;2023-02-22T14:21:03;15.13;;;6.78;;
74471;SDS011;62920;53.572;10.050;2023-02-22T14:23:43;13.13;;;7.05;;
74471;SDS011;62920;53.572;10.050;2023-02-22T14:26:26;15.75;;;7.72;;
74471;SDS011;62920;53.572;10.050;2023-02-22T14:28:57;16.45;;;7.65;;
74471;SDS011;62920;53.572;10.050;2023-02-22T14:31:28;15.48;;;7.25;;
74471;SDS011;62920;53.572;10.050;2023-02-22T14:34:08;15.38;;;6.45;;
74471;SDS011;62920;53.572;10.050;2023-02-22T14:36:40;14.90;;;7.45;;
74471;SDS011;62920;53.572;10.050;2023-02-22T14:41:51;17.30;;;7.32;;
74471;SDS011;62920;53.572;10.050;2023-02-22T14:44:22;15.38;;;7.60;;
74471;SDS011;62920;53.572;10.050;2023-02-22T14:46:50;13.13;;;6.88;;
74471;SDS011;62920;53.572;10.050;2023-02-22T14:49:19;13.77;;;6.18;;
74471;SDS011;62920;53.572;10.050;2023-02-22T14:51:56;16.27;;;7.60;;
74471;SDS011;62920;53.572;10.050;2023-02-22T14:54:25;15.85;;;7.82;;
74471;SDS011;62920;53.572;10.050;2023-02-22T15:02:26;21.50;;;8.40;;
74471;SDS011;62920;53.572;10.050;2023-02-22T15:04:52;17.10;;;8.10;;
74471;SDS011;62920;53.572;10.050;2023-02-22T15:07:28;17.33;;;8.27;;
74471;SDS011;62920;53.572;10.050;2023-02-22T15:12:52;18.50;;;7.32;;
74471;SDS011;62920;53.572;10.050;2023-02-22T15:15:32;20.20;;;9.35;;
74471;SDS011;62920;53.572;10.050;2023-02-22T15:17:59;18.25;;;7.97;;
74471;SDS011;62920;53.572;10.050;2023-02-22T15:20:25;18.88;;;8.90;;
74471;SDS011;62920;53.572;10.050;2023-02-22T15:22:51;17.33;;;7.05;;
74471;SDS011;62920;53.572;10.050;2023-02-22T15:25:24;21.40;;;8.68;;
74471;SDS011;62920;53.572;10.050;2023-02-22T15:27:50;20.13;;;7.78;;
74471;SDS011;62920;53.572;10.050;2023-02-22T15:30:23;18.83;;;7.78;;
74471;SDS011;62920;53.572;10.050;2023-02-22T15:32:52;15.68;;;8.13;;
74471;SDS011;62920;53.572;10.050;2023-02-22T15:35:19;15.88;;;7.88;;
74471;SDS011;62920;53.572;10.050;2023-02-22T15:38:02;16.10;;;7.75;;
74471;SDS011;62920;53.572;10.050;2023-02-22T15:40:57;17.90;;;8.30;;
74471;SDS011;62920;53.572;10.050;2023-02-22T15:43:24;19.83;;;7.93;;
74471;SDS011;62920;53.572;10.050;2023-02-22T15:45:52;19.40;;;8.00;;
74471;SDS011;62920;53.572;10.050;2023-02-22T15:48:19;16.25;;;7.38;;
74471;SDS011;62920;53.572;10.050;2023-02-22T15:53:46;19.30;;;8.23;;
74471;SDS011;62920;53.572;10.050;2023-02-22T15:56:16;19.67;;;8.30;;
74471;SDS011;62920;53.572;10.050;2023-02-22T15:58:44;17.88;;;7.07;;
74471;SDS011;62920;53.572;10.050;2023-02-22T16:01:20;17.88;;;8.55;;
74471;SDS011;62920;53.572;10.050;2023-02-22T16:03:50;20.17;;;8.73;;
74471;SDS011;62920;53.572;10.050;2023-02-22T16:08:52;16.15;;;8.52;;
74471;SDS011;62920;53.572;10.050;2023-02-22T16:14:01;19.30;;;8.50;;
74471;SDS011;62920;53.572;10.050;2023-02-22T16:16:38;19.85;;;8.43;;
74471;SDS011;62920;53.572;10.050;2023-02-22T16:21:54;16.42;;;8.32;;
74471;SDS011;62920;53.572;10.050;2023-02-22T16:24:35;16.65;;;7.53;;
74471;SDS011;62920;53.572;10.050;2023-02-22T16:29:42;19.17;;;8.60;;
74471;SDS011;62920;53.572;10.050;2023-02-22T16:32:09;19.15;;;8.45;;
74471;SDS011;62920;53.572;10.050;2023-02-22T16:34:35;18.77;;;8.32;;
74471;SDS011;62920;53.572;10.050;2023-02-22T16:37:00;19.65;;;7.68;;
74471;SDS011;62920;53.572;10.050;2023-02-22T16:39:30;18.10;;;8.20;;
74471;SDS011;62920;53.572;10.050;2023-02-22T16:41:58;20.15;;;8.73;;
74471;SDS011;62920;53.572;10.050;2023-02-22T16:44:29;18.77;;;7.97;;
74471;SDS011;62920;53.572;10.050;2023-02-22T16:46:55;18.90;;;8.13;;
74471;SDS011;62920;53.572;10.050;2023-02-22T16:49:22;19.55;;;7.65;;
74471;SDS011;62920;53.572;10.050;2023-02-22T16:52:00;18.40;;;7.90;;
74471;SDS011;62920;53.572;10.050;2023-02-22T16:57:01;17.35;;;8.27;;
74471;SDS011;62920;53.572;10.050;2023-02-22T16:59:28;18.52;;;8.52;;
74471;SDS011;62920;53.572;10.050;2023-02-22T17:02:00;20.40;;;8.77;;
74471;SDS011;62920;53.572;10.050;2023-02-22T17:04:25;17.65;;;8.07;;
74471;SDS011;62920;53.572;10.050;2023-02-22T17:06:53;23.40;;;8.43;;
74471;SDS011;62920;53.572;10.050;2023-02-22T17:09:18;27.73;;;9.52;;
74471;SDS011;62920;53.572;10.050;2023-02-22T17:11:44;19.45;;;9.32;;
74471;SDS011;62920;53.572;10.050;2023-02-22T17:14:11;21.13;;;9.02;;
74471;SDS011;62920;53.572;10.050;2023-02-22T17:16:41;19.52;;;8.85;;
74471;SDS011;62920;53.572;10.050;2023-02-22T17:19:09;18.42;;;8.23;;